Time;durP1;ratioP1;P1;durP2;ratioP2;P2;SDS_P1;SDS_P2;PMS_P1;PMS_P2;Temp;Humidity;BMP_temperature;BMP_pressure;BME280_temperature;BME280_humidity;BME280_pressure;Samples;Min_cycle;Max_cycle;Signal;HPM_P1;HPM_P2
2022/03/01 00:01:10;;;;;;;31.90;21.50;;;;;;102672.59;;;;106983;1279;64737;-30
2022/03/01 00:03:37;;;;;;;28.00;21.10;;;;;;102668.35;;;;106978;1279;64896;-43
2022/03/01 00:06:05;;;;;;;30.60;22.10;;;;;;102668.01;;;;107019;1279;64738;-43
2022/03/01 00:08:33;;;;;;;31.90;22.40;;;;;;102666.11;;;;106983;1279;65447;-41
2022/03/01 00:11:00;;;;;;;31.00;21.70;;;;;;102664.04;;;;107020;1279;66423;-50
2022/03/01 00:13:27;;;;;;;32.40;23.00;;;;;;102660.38;;;;106927;1279;64888;-40
2022/03/01 00:15:55;;;;;;;30.20;22.10;;;;;;102653.65;;;;107042;1279;64759;-39
2022/03/01 00:18:22;;;;;;;31.80;21.90;;;;;;102648.13;;;;106914;1279;64790;-40
2022/03/01 00:20:49;;;;;;;29.70;22.50;;;;;;102652.19;;;;107035;1279;64732;-30
2022/03/01 00:23:17;;;;;;;33.50;22.00;;;;;;102651.84;;;;107048;1279;64886;-31
2022/03/01 00:25:44;;;;;;;32.80;23.40;;;;;;102651.35;;;;106938;1278;64850;-29
2022/03/01 00:28:11;;;;;;;29.60;21.10;;;;;;102650.05;;;;107024;1279;65134;-33
2022/03/01 00:30:38;;;;;;;33.70;22.90;;;;;;102653.16;;;;107030;1278;64836;-31
2022/03/01 00:33:06;;;;;;;32.80;22.60;;;;;;102648.62;;;;107027;1278;64753;-31
2022/03/01 00:35:33;;;;;;;32.10;22.50;;;;;;102649.26;;;;107050;1279;65772;-31
2022/03/01 00:38:01;;;;;;;31.90;22.50;;;;;;102650.09;;;;107010;1279;64870;-29
2022/03/01 00:40:29;;;;;;;31.80;23.20;;;;;;102647.71;;;;106982;1279;64890;-41
2022/03/01 00:42:56;;;;;;;30.50;22.60;;;;;;102645.90;;;;106974;1279;64753;-41
2022/03/01 00:45:23;;;;;;;30.00;22.60;;;;;;102646.28;;;;107064;1279;64846;-31
2022/03/01 00:47:50;;;;;;;30.30;23.00;;;;;;102644.58;;;;107023;1278;66908;-30
2022/03/01 00:50:18;;;;;;;31.70;23.20;;;;;;102644.01;;;;107024;1279;64837;-42
2022/03/01 00:52:46;;;;;;;32.70;23.10;;;;;;102644.34;;;;107004;1279;64757;-39
2022/03/01 00:55:13;;;;;;;32.70;22.70;;;;;;102646.82;;;;107023;1279;66023;-41
2022/03/01 00:57:41;;;;;;;32.00;23.10;;;;;;102644.79;;;;107031;1279;64751;-40
2022/03/01 01:00:09;;;;;;;28.80;22.60;;;;;;102642.59;;;;107093;1279;66495;-36
2022/03/01 01:02:37;;;;;;;32.20;22.80;;;;;;102641.30;;;;107065;1279;64874;-30
2022/03/01 01:05:05;;;;;;;32.20;22.90;;;;;;102643.80;;;;106988;1278;64844;-41
2022/03/01 01:07:32;;;;;;;31.30;22.90;;;;;;102641.09;;;;106970;1279;64876;-41
2022/03/01 01:10:00;;;;;;;34.90;24.40;;;;;;102640.77;;;;107037;1278;64862;-31
2022/03/01 01:12:27;;;;;;;33.00;23.80;;;;;;102640.83;;;;107039;1279;66283;-31
2022/03/01 01:14:54;;;;;;;32.20;23.00;;;;;;102638.77;;;;107008;1279;64734;-31
2022/03/01 01:17:22;;;;;;;33.00;22.80;;;;;;102641.64;;;;106989;1279;64714;-32
2022/03/01 01:19:50;;;;;;;31.00;23.00;;;;;;102639.13;;;;107015;1279;64778;-31
2022/03/01 01:25:05;;;;;;;30.50;22.40;;;;;;102634.95;;;;107024;1278;66349;-39
2022/03/01 01:27:33;;;;;;;30.80;22.50;;;;;;102636.25;;;;107013;1279;64764;-42
2022/03/01 01:30:00;;;;;;;30.60;22.10;;;;;;102635.01;;;;107062;1278;64617;-40
2022/03/01 01:32:28;;;;;;;33.90;24.30;;;;;;102639.30;;;;106967;1279;64754;-44
2022/03/01 01:34:56;;;;;;;32.50;23.10;;;;;;102637.55;;;;107057;1279;65068;-40
2022/03/01 01:37:24;;;;;;;31.10;22.80;;;;;;102636.90;;;;107036;1277;64766;-40
2022/03/01 01:39:51;;;;;;;33.50;23.50;;;;;;102640.72;;;;107027;1279;64865;-33
2022/03/01 01:42:19;;;;;;;34.50;24.30;;;;;;102638.23;;;;106990;1279;64890;-40
2022/03/01 01:44:46;;;;;;;31.90;22.40;;;;;;102637.27;;;;106975;1278;64734;-41
2022/03/01 01:47:14;;;;;;;30.90;23.60;;;;;;102638.05;;;;107057;1279;64755;-30
2022/03/01 01:49:43;;;;;;;32.60;23.30;;;;;;102638.66;;;;107072;1278;65952;-30
2022/03/01 01:52:10;;;;;;;35.50;24.90;;;;;;102641.86;;;;106940;1279;64776;-31
2022/03/01 01:54:38;;;;;;;33.80;23.80;;;;;;102640.42;;;;106954;1279;65404;-31
2022/03/01 01:57:33;;;;;;;31.00;22.40;;;;;;102641.56;;;;107021;1279;64803;-39
2022/03/01 02:00:01;;;;;;;34.20;23.90;;;;;;102642.86;;;;106877;1278;64856;-40
2022/03/01 02:02:28;;;;;;;32.30;23.20;;;;;;102645.79;;;;106999;1279;66174;-41
2022/03/01 02:04:55;;;;;;;33.10;24.20;;;;;;102641.79;;;;106950;1279;64944;-30
2022/03/01 02:07:23;;;;;;;32.90;23.00;;;;;;102640.05;;;;107021;1277;65524;-28
2022/03/01 02:09:51;;;;;;;34.60;23.90;;;;;;102640.21;;;;107029;1278;64859;-35
2022/03/01 02:12:18;;;;;;;34.20;24.10;;;;;;102637.95;;;;107015;1279;64740;-30
2022/03/01 02:14:46;;;;;;;32.70;23.50;;;;;;102640.52;;;;106934;1279;64910;-32
2022/03/01 02:17:15;;;;;;;32.80;23.30;;;;;;102638.05;;;;106989;1277;64849;-30
2022/03/01 02:19:51;;;;;;;33.60;24.00;;;;;;102631.72;;;;107069;1278;65003;-31
2022/03/01 02:22:19;;;;;;;32.10;22.20;;;;;;102626.38;;;;106980;1280;64879;-30
2022/03/01 02:24:48;;;;;;;31.90;22.60;;;;;;102625.67;;;;106986;1278;64836;-30
2022/03/01 02:27:16;;;;;;;31.10;22.40;;;;;;102624.17;;;;107049;1278;64857;-41
2022/03/01 02:29:43;;;;;;;33.60;24.00;;;;;;102623.84;;;;107023;1278;64786;-41
2022/03/01 02:32:11;;;;;;;31.60;24.00;;;;;;102621.03;;;;107001;1278;64767;-31
2022/03/01 02:34:38;;;;;;;32.50;23.30;;;;;;102619.91;;;;106958;1279;64850;-29
2022/03/01 02:37:07;;;;;;;34.50;24.00;;;;;;102619.25;;;;107037;1278;64857;-42
2022/03/01 02:39:34;;;;;;;32.10;22.90;;;;;;102619.64;;;;107054;1278;64980;-41
2022/03/01 02:42:03;;;;;;;33.10;22.70;;;;;;102615.34;;;;106862;1278;64772;-41
2022/03/01 02:44:30;;;;;;;33.40;23.10;;;;;;102613.00;;;;106956;1279;64756;-42
2022/03/01 02:46:58;;;;;;;31.40;23.60;;;;;;102614.17;;;;107066;1277;64867;-30
2022/03/01 02:49:25;;;;;;;31.50;22.50;;;;;;102615.52;;;;107056;1277;64761;-30
2022/03/01 02:51:53;;;;;;;31.20;22.50;;;;;;102615.73;;;;107040;1278;66268;-42
2022/03/01 02:54:20;;;;;;;33.70;24.30;;;;;;102614.28;;;;107019;1278;64988;-42
2022/03/01 02:56:48;;;;;;;30.50;22.40;;;;;;102613.10;;;;106862;1279;64875;-30
2022/03/01 02:59:15;;;;;;;31.70;23.40;;;;;;102610.03;;;;107031;1277;64775;-31
2022/03/01 03:01:42;;;;;;;31.60;23.00;;;;;;102606.73;;;;107022;1278;64943;-31
2022/03/01 03:04:10;;;;;;;32.20;22.90;;;;;;102605.77;;;;107040;1279;64981;-31
2022/03/01 03:06:37;;;;;;;31.90;22.90;;;;;;102601.42;;;;106907;1279;64882;-40
2022/03/01 03:09:04;;;;;;;28.50;22.20;;;;;;102601.83;;;;107026;1278;65199;-42
2022/03/01 03:11:32;;;;;;;29.40;23.10;;;;;;102598.61;;;;106957;1279;64766;-30
2022/03/01 03:13:59;;;;;;;30.50;23.20;;;;;;102594.30;;;;107052;1278;64889;-36
2022/03/01 03:16:27;;;;;;;32.20;23.40;;;;;;102591.73;;;;106970;1279;65151;-42
2022/03/01 03:18:54;;;;;;;32.90;23.70;;;;;;102588.90;;;;107023;1278;64877;-42
2022/03/01 03:21:21;;;;;;;32.70;23.30;;;;;;102587.64;;;;107049;1277;64840;-30
2022/03/01 03:23:49;;;;;;;33.10;22.70;;;;;;102585.68;;;;107005;1278;64939;-31
2022/03/01 03:26:16;;;;;;;30.80;24.00;;;;;;102581.81;;;;106922;1279;63463;-42
2022/03/01 03:28:43;;;;;;;32.50;23.50;;;;;;102585.05;;;;107043;1278;64906;-41
2022/03/01 03:31:12;;;;;;;31.70;23.70;;;;;;102582.36;;;;107037;1277;64840;-29
2022/03/01 03:33:40;;;;;;;30.60;22.90;;;;;;102583.14;;;;107036;1277;64729;-31
2022/03/01 03:36:07;;;;;;;32.70;22.70;;;;;;102583.50;;;;107020;1278;64739;-42
2022/03/01 03:38:35;;;;;;;30.10;21.50;;;;;;102580.36;;;;107038;1278;64862;-42
2022/03/01 03:41:02;;;;;;;31.30;22.70;;;;;;102580.44;;;;107071;1278;66633;-45
2022/03/01 03:43:29;;;;;;;30.60;22.90;;;;;;102573.41;;;;107010;1278;64878;-41
2022/03/01 03:45:57;;;;;;;31.00;22.60;;;;;;102572.41;;;;106975;1279;64631;-43
2022/03/01 03:48:24;;;;;;;31.10;23.20;;;;;;102570.64;;;;107006;1278;64769;-41
2022/03/01 03:50:51;;;;;;;30.50;22.40;;;;;;102566.13;;;;107020;1278;64883;-40
2022/03/01 03:53:18;;;;;;;30.40;22.90;;;;;;102566.25;;;;107045;1278;66362;-42
2022/03/01 03:55:46;;;;;;;32.10;22.10;;;;;;102563.95;;;;107008;1277;64868;-42
2022/03/01 03:58:13;;;;;;;31.10;22.40;;;;;;102565.12;;;;107031;1278;64847;-40
2022/03/01 04:00:41;;;;;;;30.30;22.30;;;;;;102562.90;;;;106930;1279;64713;-42
2022/03/01 04:03:09;;;;;;;28.60;22.70;;;;;;102562.04;;;;107066;1278;64875;-45
2022/03/01 04:05:36;;;;;;;30.00;22.50;;;;;;102565.05;;;;107032;1277;65993;-41
2022/03/01 04:08:04;;;;;;;31.60;22.80;;;;;;102566.15;;;;107027;1278;65940;-41
2022/03/01 04:10:31;;;;;;;31.20;22.50;;;;;;102568.06;;;;107050;1277;64747;-34
2022/03/01 04:12:59;;;;;;;29.30;21.70;;;;;;102569.22;;;;107018;1278;65212;-31
2022/03/01 04:15:27;;;;;;;29.70;21.80;;;;;;102569.05;;;;107045;1278;64667;-42
2022/03/01 04:17:54;;;;;;;30.90;22.50;;;;;;102565.20;;;;107092;1278;66422;-41
2022/03/01 04:20:22;;;;;;;30.80;22.60;;;;;;102561.75;;;;107011;1277;64747;-42
2022/03/01 04:22:49;;;;;;;29.20;22.40;;;;;;102557.96;;;;107028;1277;65842;-42
2022/03/01 04:25:16;;;;;;;31.40;21.90;;;;;;102558.15;;;;106754;1277;319862;-34
2022/03/01 04:27:44;;;;;;;31.00;21.70;;;;;;102553.62;;;;106936;1281;64883;-41
2022/03/01 04:30:12;;;;;;;26.80;21.20;;;;;;102555.33;;;;106989;1279;65957;-30
2022/03/01 04:32:41;;;;;;;29.60;21.90;;;;;;102555.72;;;;107049;1278;64846;-30
2022/03/01 04:35:12;;;;;;;29.70;22.10;;;;;;102553.39;;;;107059;1277;64834;-40
2022/03/01 04:37:42;;;;;;;28.40;21.40;;;;;;102552.63;;;;107026;1277;64821;-41
2022/03/01 04:40:12;;;;;;;28.50;21.00;;;;;;102553.16;;;;107008;1279;64904;-30
2022/03/01 04:42:39;;;;;;;29.60;22.20;;;;;;102550.52;;;;107057;1277;65129;-30
2022/03/01 04:45:09;;;;;;;29.50;21.20;;;;;;102553.09;;;;106883;1278;64825;-40
2022/03/01 04:47:38;;;;;;;28.80;21.60;;;;;;102552.45;;;;106994;1278;64736;-40
2022/03/01 04:50:07;;;;;;;27.30;20.30;;;;;;102549.73;;;;107053;1278;64885;-41
2022/03/01 04:52:35;;;;;;;28.80;21.90;;;;;;102547.36;;;;107065;1278;64885;-31
2022/03/01 04:55:04;;;;;;;29.30;21.40;;;;;;102544.55;;;;106940;1281;65269;-31
2022/03/01 04:57:32;;;;;;;26.30;20.40;;;;;;102542.60;;;;107057;1278;64715;-30
2022/03/01 04:59:59;;;;;;;28.10;21.50;;;;;;102541.71;;;;107061;1277;64759;-31
2022/03/01 05:02:27;;;;;;;29.60;20.60;;;;;;102542.13;;;;107044;1278;64840;-30
2022/03/01 05:04:55;;;;;;;29.90;21.30;;;;;;102542.05;;;;107069;1278;65408;-40
2022/03/01 05:07:22;;;;;;;30.20;22.30;;;;;;102539.55;;;;107043;1277;66122;-43
2022/03/01 05:09:50;;;;;;;29.00;20.80;;;;;;102537.54;;;;106958;1277;64773;-38
2022/03/01 05:12:19;;;;;;;28.20;20.00;;;;;;102535.80;;;;107069;1278;64889;-43
2022/03/01 05:14:46;;;;;;;25.60;20.90;;;;;;102538.03;;;;107013;1278;65007;-42
2022/03/01 05:17:14;;;;;;;28.30;21.50;;;;;;102541.43;;;;107055;1277;64749;-42
2022/03/01 05:19:42;;;;;;;28.90;20.90;;;;;;102546.67;;;;107032;1278;66194;-43
2022/03/01 05:22:10;;;;;;;30.10;21.20;;;;;;102544.29;;;;106954;1278;64901;-40
2022/03/01 05:24:38;;;;;;;29.70;21.50;;;;;;102541.91;;;;107055;1277;65003;-42
2022/03/01 05:27:06;;;;;;;28.40;21.50;;;;;;102542.44;;;;106916;1277;64792;-31
2022/03/01 05:29:34;;;;;;;27.90;20.80;;;;;;102543.85;;;;107067;1277;64788;-30
2022/03/01 05:32:02;;;;;;;27.80;21.30;;;;;;102540.00;;;;107084;1278;64957;-30
2022/03/01 05:34:30;;;;;;;28.30;21.70;;;;;;102540.88;;;;106993;1280;64780;-30
2022/03/01 05:36:57;;;;;;;29.30;21.50;;;;;;102540.52;;;;106984;1278;64757;-41
2022/03/01 05:39:25;;;;;;;27.80;20.30;;;;;;102539.80;;;;106943;1280;64779;-42
2022/03/01 05:41:52;;;;;;;26.20;21.00;;;;;;102537.23;;;;106864;1278;64869;-31
2022/03/01 05:44:20;;;;;;;27.00;20.90;;;;;;102536.07;;;;106946;1279;66208;-32
2022/03/01 05:46:47;;;;;;;27.60;20.70;;;;;;102538.13;;;;107012;1277;64844;-31
2022/03/01 05:49:16;;;;;;;28.00;20.50;;;;;;102540.27;;;;106945;1278;64791;-30
2022/03/01 05:51:43;;;;;;;25.80;19.80;;;;;;102539.70;;;;106998;1278;64754;-30
2022/03/01 05:54:10;;;;;;;26.40;21.00;;;;;;102540.27;;;;107057;1277;63449;-31
2022/03/01 05:56:37;;;;;;;27.90;21.00;;;;;;102539.21;;;;107053;1277;66163;-31
2022/03/01 05:59:05;;;;;;;26.70;20.00;;;;;;102541.02;;;;106936;1278;65190;-37
2022/03/01 06:01:32;;;;;;;27.40;21.30;;;;;;102540.33;;;;107024;1281;64852;-41
2022/03/01 06:04:00;;;;;;;28.90;20.60;;;;;;102540.67;;;;106989;1277;64602;-42
2022/03/01 06:06:28;;;;;;;29.30;22.20;;;;;;102542.09;;;;106964;1278;64747;-30
2022/03/01 06:08:57;;;;;;;28.80;20.50;;;;;;102539.75;;;;106930;1278;65725;-31
2022/03/01 06:11:24;;;;;;;27.60;22.60;;;;;;102538.39;;;;106866;1281;64833;-42
2022/03/01 06:13:51;;;;;;;29.70;22.40;;;;;;102535.43;;;;106929;1281;64754;-41
2022/03/01 06:16:18;;;;;;;29.20;22.90;;;;;;102535.08;;;;106982;1277;64890;-30
2022/03/01 06:18:46;;;;;;;29.90;22.20;;;;;;102535.25;;;;107007;1278;64873;-30
2022/03/01 06:21:13;;;;;;;29.60;22.20;;;;;;102534.86;;;;106924;1277;66133;-42
2022/03/01 06:23:40;;;;;;;29.30;21.60;;;;;;102537.64;;;;106945;1278;64908;-43
2022/03/01 06:26:08;;;;;;;28.70;21.80;;;;;;102532.67;;;;107004;1278;64670;-41
2022/03/01 06:28:35;;;;;;;28.90;22.70;;;;;;102533.59;;;;106957;1278;64855;-48
2022/03/01 06:31:03;;;;;;;28.60;22.20;;;;;;102534.80;;;;107006;1278;62199;-29
2022/03/01 06:33:30;;;;;;;28.50;21.60;;;;;;102530.13;;;;106976;1277;64864;-31
2022/03/01 06:35:58;;;;;;;26.30;21.30;;;;;;102530.65;;;;107003;1278;64845;-31
2022/03/01 06:38:26;;;;;;;26.60;20.70;;;;;;102529.19;;;;106997;1278;64890;-31
2022/03/01 06:40:56;;;;;;;26.70;21.30;;;;;;102526.58;;;;107008;1277;64748;-31
2022/03/01 06:43:24;;;;;;;26.70;20.40;;;;;;102527.19;;;;106989;1278;64966;-30
2022/03/01 06:45:52;;;;;;;24.20;20.70;;;;;;102527.61;;;;106981;1277;64974;-42
2022/03/01 06:48:20;;;;;;;26.00;19.90;;;;;;102528.45;;;;106980;1277;64899;-43
2022/03/01 06:50:48;;;;;;;27.10;20.80;;;;;;102526.44;;;;106994;1277;64921;-30
2022/03/01 06:53:16;;;;;;;25.70;20.10;;;;;;102528.27;;;;106970;1278;64761;-31
2022/03/01 06:55:44;;;;;;;26.40;20.50;;;;;;102529.00;;;;106970;1281;64694;-31
2022/03/01 06:58:12;;;;;;;29.60;20.70;;;;;;102527.67;;;;107015;1277;65647;-32
2022/03/01 07:00:39;;;;;;;25.20;20.80;;;;;;102525.92;;;;106896;1280;64864;-43
2022/03/01 07:03:07;;;;;;;26.90;20.00;;;;;;102523.14;;;;107006;1277;64699;-45
2022/03/01 07:05:34;;;;;;;25.80;20.10;;;;;;102527.15;;;;106949;1278;64968;-41
2022/03/01 07:08:03;;;;;;;25.40;19.70;;;;;;102527.21;;;;106992;1278;64812;-42
2022/03/01 07:10:32;;;;;;;24.20;20.00;;;;;;102529.86;;;;107039;1277;66499;-30
2022/03/01 07:12:59;;;;;;;26.60;20.40;;;;;;102527.42;;;;107083;1277;64834;-30
2022/03/01 07:15:26;;;;;;;28.60;19.90;;;;;;102525.70;;;;107064;1277;64740;-42
2022/03/01 07:17:53;;;;;;;26.10;20.40;;;;;;102523.83;;;;107059;1277;64757;-42
2022/03/01 07:20:20;;;;;;;25.00;19.40;;;;;;102518.76;;;;107057;1277;64821;-31
2022/03/01 07:22:48;;;;;;;27.00;20.40;;;;;;102519.66;;;;107065;1277;64878;-31
2022/03/01 07:25:15;;;;;;;23.80;19.30;;;;;;102517.77;;;;106940;1277;64799;-43
2022/03/01 07:27:51;;;;;;;24.30;19.70;;;;;;102515.41;;;;107069;1277;64763;-42
2022/03/01 07:30:21;;;;;;;24.10;19.70;;;;;;102512.05;;;;107055;1277;64645;-41
2022/03/01 07:32:54;;;;;;;24.00;19.90;;;;;;102510.85;;;;107072;1278;64895;-40
2022/03/01 07:35:22;;;;;;;25.90;19.10;;;;;;102510.64;;;;107084;1277;66521;-30
2022/03/01 07:37:51;;;;;;;24.40;19.00;;;;;;102511.26;;;;107074;1277;64763;-30
2022/03/01 07:40:20;;;;;;;24.80;18.40;;;;;;102511.78;;;;107098;1277;64840;-30
2022/03/01 07:42:49;;;;;;;25.70;19.10;;;;;;102512.81;;;;106954;1278;64761;-30
2022/03/01 07:45:16;;;;;;;25.90;20.40;;;;;;102514.06;;;;107105;1277;64795;-30
2022/03/01 07:47:44;;;;;;;24.90;20.50;;;;;;102511.25;;;;107082;1277;66079;-30
2022/03/01 07:50:12;;;;;;;24.20;18.20;;;;;;102511.31;;;;107062;1277;64851;-31
2022/03/01 07:52:40;;;;;;;26.80;19.40;;;;;;102511.92;;;;107004;1278;64796;-31
2022/03/01 07:55:08;;;;;;;25.40;18.50;;;;;;102508.20;;;;106988;1279;64981;-41
2022/03/01 07:57:35;;;;;;;24.90;19.00;;;;;;102508.11;;;;107094;1277;64875;-41
2022/03/01 08:00:05;;;;;;;23.60;17.90;;;;;;102506.32;;;;107040;1277;66459;-39
2022/03/01 08:02:33;;;;;;;24.10;18.80;;;;;;102506.69;;;;107051;1277;64748;-39
2022/03/01 08:05:01;;;;;;;26.20;18.80;;;;;;102509.46;;;;106888;1278;64752;-30
2022/03/01 08:07:28;;;;;;;23.30;18.80;;;;;;102511.20;;;;107037;1277;64768;-31
2022/03/01 08:09:56;;;;;;;22.50;17.80;;;;;;102510.48;;;;107049;1278;64907;-31
2022/03/01 08:12:23;;;;;;;24.60;16.90;;;;;;102511.02;;;;107086;1277;66128;-31
2022/03/01 08:14:50;;;;;;;23.50;18.50;;;;;;102507.52;;;;107043;1277;64837;-30
2022/03/01 08:17:19;;;;;;;22.80;17.90;;;;;;102508.23;;;;107056;1277;64809;-37
2022/03/01 08:19:48;;;;;;;22.30;16.60;;;;;;102506.89;;;;107033;1277;64868;-29
2022/03/01 08:22:16;;;;;;;21.20;17.00;;;;;;102505.64;;;;107119;1277;64844;-31
2022/03/01 08:24:44;;;;;;;23.80;18.70;;;;;;102506.92;;;;107089;1277;64759;-31
2022/03/01 08:27:11;;;;;;;23.70;17.10;;;;;;102500.23;;;;106943;1278;64910;-30
2022/03/01 08:29:39;;;;;;;22.50;17.00;;;;;;102498.02;;;;106890;1278;64772;-30
2022/03/01 08:32:06;;;;;;;23.60;16.50;;;;;;102501.86;;;;107039;1277;64912;-32
2022/03/01 08:34:34;;;;;;;21.50;16.30;;;;;;102505.04;;;;107088;1277;64741;-32
2022/03/01 08:37:02;;;;;;;21.00;15.80;;;;;;102506.01;;;;107022;1278;66451;-29
2022/03/01 08:39:29;;;;;;;21.30;16.80;;;;;;102508.27;;;;106868;1279;64882;-33
2022/03/01 08:41:56;;;;;;;21.50;16.20;;;;;;102511.83;;;;107033;1277;64829;-32
2022/03/01 08:44:24;;;;;;;22.10;15.90;;;;;;102517.91;;;;106950;1278;64820;-33
2022/03/01 08:46:51;;;;;;;21.90;16.60;;;;;;102525.77;;;;107070;1278;64852;-39
2022/03/01 08:49:18;;;;;;;21.50;15.30;;;;;;102518.41;;;;106920;1279;65148;-42
2022/03/01 08:51:45;;;;;;;20.30;15.90;;;;;;102516.08;;;;106981;1278;64967;-46
2022/03/01 08:54:13;;;;;;;21.90;17.70;;;;;;102518.69;;;;107049;1277;64863;-45
2022/03/01 08:56:40;;;;;;;20.20;15.80;;;;;;102516.33;;;;106970;1278;64792;-46
2022/03/01 08:59:09;;;;;;;18.80;14.30;;;;;;102504.05;;;;106942;1277;64830;-38
2022/03/01 09:01:37;;;;;;;20.40;15.30;;;;;;102494.46;;;;106928;1278;66184;-38
2022/03/01 09:04:04;;;;;;;21.90;15.00;;;;;;102500.11;;;;107081;1277;64779;-37
2022/03/01 09:06:32;;;;;;;20.50;14.10;;;;;;102497.67;;;;107038;1277;64767;-34
2022/03/01 09:08:59;;;;;;;17.20;13.90;;;;;;102498.23;;;;107021;1277;64797;-37
2022/03/01 09:11:26;;;;;;;19.30;14.60;;;;;;102502.66;;;;107068;1277;64765;-37
2022/03/01 09:13:57;;;;;;;17.80;13.70;;;;;;102508.10;;;;106957;1278;64741;-39
2022/03/01 09:16:24;;;;;;;17.90;13.50;;;;;;102502.55;;;;106967;1278;64712;-44
2022/03/01 09:18:51;;;;;;;19.00;13.60;;;;;;102499.41;;;;106894;1280;65001;-46
2022/03/01 09:21:20;;;;;;;17.40;12.70;;;;;;102498.31;;;;106993;1277;64771;-31
2022/03/01 09:23:47;;;;;;;17.20;12.70;;;;;;102490.00;;;;106985;1278;66115;-31
2022/03/01 09:26:15;;;;;;;16.50;11.70;;;;;;102485.98;;;;106921;1278;65776;-30
2022/03/01 09:28:43;;;;;;;18.50;12.50;;;;;;102484.94;;;;107011;1278;64974;-30
2022/03/01 09:31:11;;;;;;;17.10;12.30;;;;;;102482.86;;;;106917;1278;64861;-31
2022/03/01 09:33:48;;;;;;;15.90;11.90;;;;;;102470.55;;;;106825;1280;64913;-31
2022/03/01 09:36:15;;;;;;;16.30;11.90;;;;;;102472.92;;;;106978;1277;64772;-31
2022/03/01 09:38:43;;;;;;;16.60;12.50;;;;;;102472.83;;;;106915;1278;65331;-31
2022/03/01 09:41:13;;;;;;;15.60;12.10;;;;;;102469.84;;;;107000;1277;64761;-30
2022/03/01 09:43:41;;;;;;;15.90;11.80;;;;;;102467.26;;;;106942;1278;64859;-30
2022/03/01 09:46:10;;;;;;;15.40;11.50;;;;;;102470.98;;;;106884;1278;64755;-38
2022/03/01 09:48:38;;;;;;;15.20;11.20;;;;;;102466.21;;;;107078;1278;64830;-38
2022/03/01 09:51:08;;;;;;;14.90;11.50;;;;;;102459.95;;;;107061;1276;66514;-38
2022/03/01 09:53:39;;;;;;;14.90;11.40;;;;;;102451.67;;;;107064;1277;64899;-38
2022/03/01 09:56:07;;;;;;;15.30;10.90;;;;;;102444.11;;;;107040;1277;64787;-38
2022/03/01 09:58:35;;;;;;;15.00;10.80;;;;;;102434.16;;;;106897;1277;64957;-38
2022/03/01 10:01:03;;;;;;;14.40;11.20;;;;;;102434.22;;;;107076;1277;64898;-41
2022/03/01 10:03:34;;;;;;;14.20;11.00;;;;;;102429.70;;;;107050;1277;66091;-42
2022/03/01 10:06:11;;;;;;;13.90;10.60;;;;;;102430.27;;;;106926;1278;64875;-29
2022/03/01 10:08:39;;;;;;;14.80;10.40;;;;;;102430.16;;;;107055;1277;64911;-30
2022/03/01 10:11:07;;;;;;;13.40;10.00;;;;;;102424.55;;;;106933;1278;64955;-32
2022/03/01 10:13:41;;;;;;;15.00;10.80;;;;;;102418.81;;;;107064;1277;64880;-30
2022/03/01 10:16:15;;;;;;;13.70;9.70;;;;;;102414.13;;;;107035;1277;64881;-43
2022/03/01 10:18:52;;;;;;;13.90;10.80;;;;;;102410.17;;;;106936;1278;64991;-41
2022/03/01 10:21:22;;;;;;;13.50;9.50;;;;;;102409.60;;;;107050;1277;64867;-41
2022/03/01 10:23:57;;;;;;;12.60;9.70;;;;;;102408.77;;;;106899;1277;64867;-40
2022/03/01 10:26:30;;;;;;;11.80;9.50;;;;;;102399.84;;;;106919;1277;64853;-33
2022/03/01 10:29:00;;;;;;;12.50;9.70;;;;;;102390.11;;;;107036;1277;65901;-27
2022/03/01 10:31:30;;;;;;;11.50;9.10;;;;;;102384.89;;;;106976;1278;64791;-32
2022/03/01 10:34:09;;;;;;;13.20;9.30;;;;;;102377.60;;;;106901;1278;64949;-31
2022/03/01 10:36:46;;;;;;;12.60;9.10;;;;;;102376.14;;;;106950;1277;64731;-33
2022/03/01 10:39:19;;;;;;;14.70;8.90;;;;;;102369.92;;;;106988;1277;64795;-29
2022/03/01 10:41:50;;;;;;;13.20;8.80;;;;;;102371.00;;;;107034;1277;67659;-33
2022/03/01 10:44:26;;;;;;;11.30;8.10;;;;;;102368.87;;;;106893;1278;64873;-29
2022/03/01 10:47:03;;;;;;;11.90;8.40;;;;;;102369.27;;;;107021;1277;64737;-30
2022/03/01 10:49:34;;;;;;;11.30;8.50;;;;;;102365.86;;;;106998;1278;64896;-28
2022/03/01 10:52:07;;;;;;;13.50;8.60;;;;;;102363.73;;;;107033;1277;64863;-37
2022/03/01 10:54:40;;;;;;;10.80;8.10;;;;;;102359.08;;;;106930;1278;66487;-35
2022/03/01 10:57:12;;;;;;;13.30;8.90;;;;;;102353.55;;;;107003;1277;64783;-30
2022/03/01 10:59:40;;;;;;;10.70;7.60;;;;;;102347.71;;;;106891;1279;64773;-29
2022/03/01 11:02:08;;;;;;;10.20;7.60;;;;;;102347.04;;;;107027;1277;65095;-30
2022/03/01 11:04:36;;;;;;;11.20;8.00;;;;;;102345.92;;;;107033;1277;64964;-31
2022/03/01 11:07:08;;;;;;;9.50;7.10;;;;;;102343.21;;;;106945;1278;66188;-36
2022/03/01 11:09:35;;;;;;;9.30;6.50;;;;;;102337.48;;;;107005;1277;64758;-45
2022/03/01 11:12:06;;;;;;;9.50;6.90;;;;;;102337.05;;;;107014;1278;64850;-30
2022/03/01 11:15:11;;;;;;;9.30;6.50;;;;;;102334.24;;;;106994;1277;64745;-30
2022/03/01 11:18:09;;;;;;;10.10;6.30;;;;;;102330.69;;;;106951;1278;64862;-29
2022/03/01 11:20:43;;;;;;;8.40;6.10;;;;;;102324.19;;;;106924;1278;67772;-33
2022/03/01 11:23:18;;;;;;;9.40;6.00;;;;;;102323.19;;;;107048;1277;64862;-29
2022/03/01 11:25:46;;;;;;;8.60;5.90;;;;;;102319.77;;;;107002;1277;64616;-39
2022/03/01 11:28:16;;;;;;;9.50;6.00;;;;;;102313.49;;;;107002;1276;64793;-37
2022/03/01 11:30:51;;;;;;;9.00;6.20;;;;;;102313.50;;;;107043;1277;64694;-39
2022/03/01 11:33:36;;;;;;;8.10;5.70;;;;;;102310.38;;;;106958;1278;66529;-37
2022/03/01 11:36:06;;;;;;;10.10;5.80;;;;;;102306.38;;;;106875;1277;64975;-37
2022/03/01 11:38:34;;;;;;;8.10;5.50;;;;;;102299.43;;;;107034;1277;64742;-41
2022/03/01 11:41:11;;;;;;;10.20;5.40;;;;;;102291.77;;;;107024;1277;64795;-38
2022/03/01 11:43:39;;;;;;;8.50;5.10;;;;;;102287.67;;;;106943;1277;65579;-39
2022/03/01 11:46:18;;;;;;;8.50;5.40;;;;;;102285.48;;;;107061;1277;65989;-33
2022/03/01 11:48:50;;;;;;;8.80;5.10;;;;;;102285.21;;;;106988;1277;64771;-32
2022/03/01 11:51:18;;;;;;;7.70;5.00;;;;;;102274.20;;;;107046;1277;64899;-29
2022/03/01 11:53:49;;;;;;;8.70;5.10;;;;;;102271.07;;;;107016;1277;64717;-31
2022/03/01 11:56:18;;;;;;;7.20;4.60;;;;;;102262.41;;;;107044;1277;64662;-29
2022/03/01 11:58:51;;;;;;;7.90;5.10;;;;;;102261.13;;;;106880;1277;66158;-29
2022/03/01 12:01:23;;;;;;;7.50;4.80;;;;;;102253.56;;;;106984;1277;64008;-44
2022/03/01 12:03:53;;;;;;;8.80;5.30;;;;;;102249.52;;;;107003;1277;64936;-44
2022/03/01 12:06:21;;;;;;;8.00;5.20;;;;;;102240.98;;;;107019;1277;64881;-44
2022/03/01 12:08:57;;;;;;;7.80;5.10;;;;;;102240.99;;;;107043;1277;64886;-44
2022/03/01 12:12:06;;;;;;;8.20;5.10;;;;;;102239.96;;;;107052;1277;65945;-29
2022/03/01 12:14:34;;;;;;;7.60;4.90;;;;;;102235.61;;;;106978;1277;64753;-27
2022/03/01 12:17:18;;;;;;;9.20;5.00;;;;;;102235.61;;;;107036;1277;64865;-44
2022/03/01 12:19:45;;;;;;;6.90;4.60;;;;;;102231.55;;;;107038;1277;64788;-44
2022/03/01 12:22:15;;;;;;;6.70;4.20;;;;;;102228.95;;;;107011;1277;64624;-29
2022/03/01 12:24:45;;;;;;;6.90;4.80;;;;;;102227.94;;;;106785;1278;322882;-28
2022/03/01 12:27:13;;;;;;;7.00;4.40;;;;;;102224.94;;;;106926;1278;64864;-44
2022/03/01 12:29:45;;;;;;;6.80;4.30;;;;;;102225.09;;;;106949;1279;64896;-39
2022/03/01 12:32:13;;;;;;;7.10;4.30;;;;;;102221.50;;;;106885;1278;64891;-37
2022/03/01 12:34:42;;;;;;;6.20;4.20;;;;;;102216.05;;;;106980;1278;64831;-37
2022/03/01 12:37:14;;;;;;;6.30;3.70;;;;;;102210.77;;;;107099;1277;65645;-37
2022/03/01 12:39:41;;;;;;;6.90;4.40;;;;;;102211.80;;;;107024;1277;64837;-38
2022/03/01 12:42:09;;;;;;;7.20;4.40;;;;;;102206.92;;;;107003;1277;64794;-29